Time;durP1;ratioP1;P1;durP2;ratioP2;P2;SDS_P1;SDS_P2;PMS_P1;PMS_P2;Temp;Humidity;BMP_temperature;BMP_pressure;BME280_temperature;BME280_humidity;BME280_pressure;Samples;Min_cycle;Max_cycle;Signal;HPM_P1;HPM_P2
2023/06/13 00:01:25;;;;;;;4.50;1.77;;;;;;;22.92;43.97;100097.25;5092368;28;20412;-65
2023/06/13 00:03:53;;;;;;;3.90;1.92;;;;;;;22.91;43.65;100100.16;5091836;28;20044;-65
2023/06/13 00:06:23;;;;;;;3.95;1.95;;;;;;;22.90;43.53;100090.28;5092124;28;20442;-65
2023/06/13 00:08:52;;;;;;;3.42;1.83;;;;;;;22.88;43.80;100089.63;5091984;28;20113;-64
2023/06/13 00:11:20;;;;;;;5.22;2.00;;;;;;;22.87;43.82;100093.34;5092294;28;20048;-65
2023/06/13 00:13:49;;;;;;;3.60;1.90;;;;;;;22.87;43.94;100090.63;5092163;28;20044;-65
2023/06/13 00:16:17;;;;;;;3.50;1.98;;;;;;;22.84;44.03;100089.97;5092089;28;20056;-65
2023/06/13 00:18:48;;;;;;;6.28;2.10;;;;;;;22.84;43.83;100092.69;5091819;28;20420;-65
2023/06/13 00:21:17;;;;;;;3.13;1.88;;;;;;;22.83;43.95;100088.22;5091718;28;20382;-65
2023/06/13 00:23:45;;;;;;;3.40;1.98;;;;;;;22.82;44.01;100078.38;5092020;28;20048;-65
2023/06/13 00:26:15;;;;;;;4.22;2.22;;;;;;;22.80;44.16;100080.44;5091735;28;20451;-65
2023/06/13 00:28:43;;;;;;;3.10;1.83;;;;;;;22.80;43.79;100076.88;5091934;28;20129;-65
2023/06/13 00:31:11;;;;;;;3.38;1.95;;;;;;;22.79;44.14;100069.75;5091721;28;20055;-66
2023/06/13 00:33:43;;;;;;;4.45;2.10;;;;;;;22.78;44.12;100070.75;5091802;28;20055;-66
2023/06/13 00:36:16;;;;;;;6.55;2.28;;;;;;;22.77;44.11;100063.59;5091837;28;20139;-66
2023/06/13 00:38:44;;;;;;;3.47;1.90;;;;;;;22.77;44.08;100066.31;5091850;28;20050;-66
2023/06/13 00:41:12;;;;;;;3.53;1.80;;;;;;;22.74;44.04;100066.69;5090305;28;20349;-66
2023/06/13 00:43:42;;;;;;;4.15;2.20;;;;;;;22.73;44.07;100063.13;5091683;28;20377;-66
2023/06/13 00:46:13;;;;;;;3.53;1.80;;;;;;;22.71;43.98;100067.88;5091394;28;20054;-63
2023/06/13 00:48:43;;;;;;;3.45;2.10;;;;;;;22.70;44.02;100060.75;5091748;28;20382;-66
2023/06/13 00:51:14;;;;;;;3.38;2.10;;;;;;;22.70;43.95;100051.75;5091365;28;20480;-66
2023/06/13 00:53:43;;;;;;;3.40;1.98;;;;;;;22.68;43.83;100048.34;5091642;28;20481;-65
2023/06/13 00:56:11;;;;;;;3.92;1.90;;;;;;;22.66;43.91;100048.53;5091566;28;20488;-66
2023/06/13 00:58:41;;;;;;;4.95;2.10;;;;;;;22.65;43.87;100045.97;5091290;28;20121;-66
2023/06/13 01:01:10;;;;;;;3.60;1.90;;;;;;;22.63;43.88;100043.44;5091652;28;20048;-65
2023/06/13 01:03:39;;;;;;;4.28;2.10;;;;;;;22.63;43.91;100038.00;5091678;28;20036;-66
2023/06/13 01:06:09;;;;;;;3.08;1.80;;;;;;;22.62;44.24;100033.59;5091500;28;20066;-64
2023/06/13 01:08:37;;;;;;;4.20;2.20;;;;;;;22.61;44.00;100037.34;5091232;28;20048;-64
2023/06/13 01:11:10;;;;;;;3.60;2.17;;;;;;;22.60;44.17;100037.53;5091229;28;20063;-64
2023/06/13 01:13:47;;;;;;;;;;;;;;;22.58;44.19;100029.50;5091599;28;20085;-65
2023/06/13 01:16:24;;;;;;;4.03;1.90;;;;;;;22.57;43.94;100033.25;5093230;28;20026;-64
2023/06/13 01:18:54;;;;;;;2.92;1.85;;;;;;;22.56;44.02;100028.84;5095178;28;20043;-64
2023/06/13 01:21:25;;;;;;;4.85;2.00;;;;;;;22.54;43.91;100028.19;5095259;28;20054;-66
2023/06/13 01:24:02;;;;;;;3.58;2.17;;;;;;;22.54;44.18;100033.63;5095139;28;20108;-65
2023/06/13 01:26:54;;;;;;;4.15;1.80;;;;;;;22.52;44.32;100025.66;5095359;28;20165;-65
2023/06/13 01:29:22;;;;;;;4.10;2.00;;;;;;;22.53;44.21;100026.50;5095269;28;20050;-65
2023/06/13 01:31:54;;;;;;;5.57;2.20;;;;;;;22.52;44.33;100024.78;5095118;28;20085;-65
2023/06/13 01:34:24;;;;;;;3.55;1.80;;;;;;;22.51;44.22;100014.94;5094951;28;20078;-65
2023/06/13 01:36:52;;;;;;;4.03;1.80;;;;;;;22.50;44.37;100013.25;5095219;28;20134;-65
2023/06/13 01:39:22;;;;;;;3.78;2.20;;;;;;;22.48;44.49;100007.97;5095049;28;20044;-65
2023/06/13 01:41:52;;;;;;;3.28;1.80;;;;;;;22.47;43.88;100006.28;5094820;28;20044;-65
2023/06/13 01:44:22;;;;;;;3.60;2.08;;;;;;;22.46;44.13;100006.47;5094993;28;20044;-65
2023/06/13 01:46:59;;;;;;;4.03;2.00;;;;;;;22.46;43.96;100003.75;5094708;28;20048;-65
2023/06/13 01:49:47;;;;;;;2.78;1.65;;;;;;;22.44;44.00;100005.78;5094822;28;20527;-65
2023/06/13 01:52:22;;;;;;;2.95;1.83;;;;;;;22.43;44.20;100002.22;5094580;28;20044;-64
2023/06/13 01:54:57;;;;;;;4.38;2.00;;;;;;;22.42;44.21;100014.13;5094606;28;20507;-64
2023/06/13 01:57:33;;;;;;;3.72;2.00;;;;;;;22.41;44.26;100009.72;5094472;28;20105;-64
2023/06/13 02:00:04;;;;;;;3.97;1.98;;;;;;;22.40;44.17;100007.19;5094481;28;20457;-65
2023/06/13 02:02:34;;;;;;;3.75;2.20;;;;;;;22.39;44.12;100009.06;5094630;28;20101;-65
2023/06/13 02:05:02;;;;;;;3.10;1.88;;;;;;;22.38;44.24;100003.75;5094765;28;20420;-65
2023/06/13 02:07:32;;;;;;;3.72;2.00;;;;;;;22.36;44.27;100001.22;5094007;28;20048;-65
2023/06/13 02:10:04;;;;;;;4.45;2.10;;;;;;;22.36;44.45;100003.09;5092950;28;20116;-64
2023/06/13 02:12:34;;;;;;;4.70;2.10;;;;;;;22.35;44.19;100006.84;5093233;28;20393;-65
2023/06/13 02:15:03;;;;;;;3.85;2.00;;;;;;;22.33;44.30;100001.59;5093323;28;20392;-65
2023/06/13 02:17:33;;;;;;;3.17;1.80;;;;;;;22.32;44.23;100008.03;5093175;28;20048;-64
2023/06/13 02:20:01;;;;;;;3.92;2.30;;;;;;;22.31;44.18;100009.06;5093010;28;20131;-64
2023/06/13 02:22:29;;;;;;;5.72;2.05;;;;;;;22.31;44.44;99992.75;5092815;28;20044;-64
2023/06/13 02:24:59;;;;;;;4.18;2.00;;;;;;;22.30;44.28;99991.06;5093102;28;20121;-65
2023/06/13 02:27:27;;;;;;;3.20;1.90;;;;;;;22.29;44.39;99994.78;5092563;28;20113;-65
2023/06/13 02:29:57;;;;;;;4.00;2.03;;;;;;;22.28;44.33;100001.25;5092848;28;20048;-65
2023/06/13 02:32:29;;;;;;;3.92;2.10;;;;;;;22.26;44.44;99998.69;5092883;28;20048;-65
2023/06/13 02:34:57;;;;;;;4.17;2.23;;;;;;;22.27;44.64;99999.53;5092672;28;20051;-65
2023/06/13 02:37:26;;;;;;;3.40;2.03;;;;;;;22.25;44.38;99997.00;5092639;28;20056;-65
2023/06/13 02:39:54;;;;;;;3.88;2.10;;;;;;;22.25;44.58;99985.31;5092677;28;20497;-65
2023/06/13 02:42:22;;;;;;;3.85;2.03;;;;;;;22.23;44.47;99988.19;5092754;28;20052;-65
2023/06/13 02:44:50;;;;;;;3.25;1.83;;;;;;;22.23;44.49;99981.91;5092580;28;20134;-65
2023/06/13 02:47:21;;;;;;;3.63;2.05;;;;;;;22.22;44.52;99986.50;5092389;28;20075;-65
2023/06/13 02:49:49;;;;;;;4.32;2.03;;;;;;;22.20;44.42;99985.84;5092373;28;20051;-65
2023/06/13 02:52:19;;;;;;;3.17;1.90;;;;;;;22.20;44.59;99990.41;5092582;28;20135;-65
2023/06/13 02:54:47;;;;;;;3.72;2.00;;;;;;;22.20;44.45;99990.41;5092528;28;20078;-65
2023/06/13 02:57:15;;;;;;;4.28;1.73;;;;;;;22.19;44.59;99988.69;5092391;28;20043;-65
2023/06/13 02:59:44;;;;;;;3.15;1.88;;;;;;;22.18;44.58;99992.44;5092436;28;20056;-65
2023/06/13 03:02:12;;;;;;;4.53;2.10;;;;;;;22.16;44.04;99987.19;5092291;28;20052;-65
2023/06/13 03:04:42;;;;;;;3.22;2.08;;;;;;;22.16;44.55;99989.91;5092097;28;20481;-64
2023/06/13 03:07:10;;;;;;;4.47;1.80;;;;;;;22.15;44.41;99990.06;5092131;28;20508;-65
2023/06/13 03:09:38;;;;;;;3.38;1.75;;;;;;;22.14;44.36;99994.66;5042084;28;1444141;-65
2023/06/13 03:12:07;;;;;;;4.03;1.85;;;;;;;22.12;44.00;99994.00;5093059;28;20087;-65
2023/06/13 03:14:36;;;;;;;2.97;1.90;;;;;;;22.11;44.47;99995.03;5092982;28;20076;-65
2023/06/13 03:17:06;;;;;;;3.75;1.90;;;;;;;22.11;44.40;100000.44;5093345;28;20105;-64
2023/06/13 03:19:34;;;;;;;3.92;1.98;;;;;;;22.10;44.23;99998.75;5093119;28;20106;-64
2023/06/13 03:22:04;;;;;;;3.65;2.00;;;;;;;22.09;44.19;99991.59;5092854;28;20055;-64
2023/06/13 03:24:35;;;;;;;4.22;2.03;;;;;;;22.08;44.11;99998.06;5093002;28;20054;-63
2023/06/13 03:27:04;;;;;;;3.30;1.80;;;;;;;22.06;44.24;99997.34;5092835;28;20222;-64
2023/06/13 03:29:32;;;;;;;5.15;2.20;;;;;;;22.05;44.12;100003.81;5092912;28;20048;-65
2023/06/13 03:32:00;;;;;;;4.10;1.92;;;;;;;22.05;44.22;99997.53;5092785;28;20397;-64
2023/06/13 03:34:29;;;;;;;4.45;2.20;;;;;;;22.04;44.02;99996.69;5092718;28;20046;-64
2023/06/13 03:37:03;;;;;;;4.25;2.20;;;;;;;22.04;44.09;99998.56;5092738;28;20040;-66
2023/06/13 03:39:32;;;;;;;5.05;1.88;;;;;;;22.03;44.15;99994.16;5092006;28;20440;-65
2023/06/13 03:42:01;;;;;;;5.35;2.30;;;;;;;22.02;44.18;99992.47;5092492;28;20040;-66
2023/06/13 03:44:30;;;;;;;4.15;2.00;;;;;;;21.99;44.21;99990.91;5092921;28;20093;-65
2023/06/13 03:46:58;;;;;;;4.05;2.00;;;;;;;21.98;44.55;99992.78;5092630;28;20504;-66
2023/06/13 03:49:27;;;;;;;4.32;2.17;;;;;;;21.96;44.20;99985.84;5092361;28;20059;-66
2023/06/13 03:51:55;;;;;;;4.18;1.92;;;;;;;21.96;44.41;99996.69;5092741;28;20059;-66
2023/06/13 03:54:24;;;;;;;3.90;2.22;;;;;;;21.94;44.71;99998.75;5092218;28;20052;-66
2023/06/13 03:56:53;;;;;;;4.47;2.25;;;;;;;21.95;44.35;99997.72;5092462;28;20471;-66
2023/06/13 03:59:21;;;;;;;4.68;2.28;;;;;;;21.93;44.56;99997.91;5092323;28;20127;-66
2023/06/13 04:01:50;;;;;;;4.43;2.20;;;;;;;21.92;44.47;100004.34;5092429;28;20044;-66
2023/06/13 04:04:18;;;;;;;4.90;2.47;;;;;;;21.91;44.43;99997.22;5092463;28;20048;-65
2023/06/13 04:06:48;;;;;;;3.88;2.17;;;;;;;21.91;44.38;99999.09;5092038;28;20066;-65
2023/06/13 04:09:17;;;;;;;4.07;2.22;;;;;;;21.90;44.39;100003.66;5092024;28;20412;-65
2023/06/13 04:11:45;;;;;;;4.95;2.28;;;;;;;21.90;44.79;100006.38;5092274;28;20491;-64
2023/06/13 04:14:16;;;;;;;4.03;2.20;;;;;;;21.90;44.98;100008.22;5091898;28;20048;-64
2023/06/13 04:16:44;;;;;;;4.75;2.20;;;;;;;21.90;44.85;100008.22;5092286;28;20476;-65
2023/06/13 04:19:18;;;;;;;3.70;1.98;;;;;;;21.90;44.54;100008.22;5092122;28;20048;-65
2023/06/13 04:21:47;;;;;;;4.68;2.20;;;;;;;21.90;45.01;100008.22;5091411;28;20040;-65
2023/06/13 04:24:15;;;;;;;3.85;2.10;;;;;;;21.90;44.99;100008.22;5092002;28;20048;-64
2023/06/13 04:26:45;;;;;;;3.72;2.00;;;;;;;21.88;45.01;100005.69;5091883;28;20128;-65
2023/06/13 04:29:15;;;;;;;4.65;2.10;;;;;;;21.89;44.93;100009.25;5091919;28;20131;-65
2023/06/13 04:31:46;;;;;;;4.28;2.20;;;;;;;21.88;45.36;100010.28;5091611;28;20044;-64
2023/06/13 04:34:14;;;;;;;4.88;2.20;;;;;;;21.87;44.76;100009.44;5091478;28;20109;-64
2023/06/13 04:36:44;;;;;;;4.10;2.15;;;;;;;21.87;45.10;100016.72;5091457;28;20501;-65
2023/06/13 04:39:12;;;;;;;3.47;2.00;;;;;;;21.88;45.65;100015.72;5091578;28;20056;-65
2023/06/13 04:41:43;;;;;;;3.90;2.08;;;;;;;21.89;45.83;100011.97;5091307;28;20122;-65
2023/06/13 04:44:13;;;;;;;5.20;2.25;;;;;;;21.89;45.61;100018.25;5091303;28;20048;-65
2023/06/13 04:46:41;;;;;;;5.40;2.05;;;;;;;21.89;45.72;100011.97;5091273;28;20059;-65
2023/06/13 04:49:11;;;;;;;4.43;2.30;;;;;;;21.89;45.41;100011.97;5091387;28;20059;-66
2023/06/13 04:51:40;;;;;;;5.90;2.28;;;;;;;21.88;45.35;100013.84;5091312;28;20117;-67
2023/06/13 04:54:09;;;;;;;4.10;2.40;;;;;;;21.90;45.49;100016.38;5091348;28;20412;-66
2023/06/13 04:56:38;;;;;;;3.90;2.03;;;;;;;21.89;46.04;100018.25;5091603;28;20517;-67
2023/06/13 04:59:09;;;;;;;3.17;2.13;;;;;;;21.89;45.70;100017.41;5091199;28;20036;-65
2023/06/13 05:01:37;;;;;;;3.47;1.95;;;;;;;21.89;45.64;100020.97;5090990;28;20055;-65
2023/06/13 05:04:06;;;;;;;3.33;1.95;;;;;;;21.89;46.04;100018.25;5091303;28;20048;-69
2023/06/13 05:06:37;;;;;;;4.88;2.10;;;;;;;21.90;46.01;100019.09;5091197;28;20044;-63
2023/06/13 05:09:07;;;;;;;4.05;2.20;;;;;;;21.91;46.56;100020.81;5090970;28;20083;-65
2023/06/13 05:11:36;;;;;;;5.60;2.38;;;;;;;21.91;47.32;100018.09;5090924;28;20044;-65
2023/06/13 05:14:04;;;;;;;4.93;2.30;;;;;;;21.91;47.72;100013.50;5091064;28;20055;-65
2023/06/13 05:16:34;;;;;;;4.85;2.13;;;;;;;21.93;48.34;100016.91;5090577;28;20048;-65
2023/06/13 05:19:05;;;;;;;4.80;2.35;;;;;;;21.94;48.65;100015.88;5091129;28;20048;-65
2023/06/13 05:21:34;;;;;;;4.97;1.95;;;;;;;21.95;48.61;100016.72;5090237;28;20048;-64
2023/06/13 05:24:04;;;;;;;3.13;1.85;;;;;;;21.95;47.94;100028.44;5091211;28;20047;-65
2023/06/13 05:26:33;;;;;;;3.60;1.92;;;;;;;21.96;47.75;100015.72;5090773;28;20048;-65
2023/06/13 05:29:05;;;;;;;4.93;1.80;;;;;;;21.97;48.54;100018.25;5090784;28;20063;-64
2023/06/13 05:31:33;;;;;;;7.15;2.10;;;;;;;21.97;48.76;100014.69;5090837;28;20413;-64
2023/06/13 05:34:02;;;;;;;4.63;2.10;;;;;;;21.97;48.88;100015.53;5090641;28;20404;-63
2023/06/13 05:36:30;;;;;;;3.85;2.05;;;;;;;21.98;48.22;100016.38;5090824;28;20174;-64
2023/06/13 05:39:00;;;;;;;3.92;1.90;;;;;;;21.97;47.44;100015.53;5090415;28;20048;-64
2023/06/13 05:41:29;;;;;;;3.90;2.17;;;;;;;21.97;47.33;100020.13;5090741;28;20070;-65
2023/06/13 05:43:58;;;;;;;3.90;2.10;;;;;;;21.98;46.99;100016.38;5090094;28;20079;-64
2023/06/13 05:46:26;;;;;;;5.43;2.10;;;;;;;21.99;48.07;100023.50;5090625;28;20044;-65
2023/06/13 05:48:54;;;;;;;4.65;2.30;;;;;;;21.99;47.89;100023.50;5090478;28;20044;-66
2023/06/13 05:51:22;;;;;;;4.35;1.98;;;;;;;22.00;47.52;100019.75;5090526;28;20048;-65
2023/06/13 05:53:51;;;;;;;3.42;1.90;;;;;;;22.00;47.56;100019.75;5090918;28;20051;-64
2023/06/13 05:56:19;;;;;;;4.78;2.20;;;;;;;22.03;48.05;100024.03;5090367;28;20097;-65
2023/06/13 05:58:51;;;;;;;4.97;2.03;;;;;;;22.05;48.10;100021.97;5090468;28;20508;-65
2023/06/13 06:01:20;;;;;;;3.70;1.95;;;;;;;22.06;48.29;100012.81;5090862;28;20101;-65
2023/06/13 06:03:48;;;;;;;3.95;2.00;;;;;;;22.06;48.09;100018.25;5094317;28;20165;-65
2023/06/13 06:06:16;;;;;;;4.00;1.90;;;;;;;22.06;48.42;100023.66;5093714;28;20378;-65
2023/06/13 06:08:44;;;;;;;4.03;2.10;;;;;;;22.06;48.36;100019.09;5091569;28;20059;-64
2023/06/13 06:11:13;;;;;;;4.53;2.40;;;;;;;22.08;48.17;100025.22;5093985;28;20055;-65
2023/06/13 06:13:41;;;;;;;3.80;1.90;;;;;;;22.09;48.25;100024.19;5093500;28;20039;-62
2023/06/13 06:16:14;;;;;;;4.65;2.20;;;;;;;22.10;48.09;100022.31;5093438;28;20105;-64
2023/06/13 06:18:42;;;;;;;5.93;1.87;;;;;;;22.09;47.47;100029.63;5091322;28;20040;-64
2023/06/13 06:21:10;;;;;;;4.20;2.08;;;;;;;22.10;47.68;100030.47;5093691;28;20284;-65
2023/06/13 06:23:39;;;;;;;5.13;2.03;;;;;;;22.10;48.05;100025.91;5094012;28;20040;-64
2023/06/13 06:26:07;;;;;;;3.42;2.03;;;;;;;22.11;47.49;100021.34;5093795;28;20126;-64
2023/06/13 06:28:35;;;;;;;4.15;2.00;;;;;;;22.10;46.88;100023.22;5093575;28;20101;-63
2023/06/13 06:31:05;;;;;;;6.85;2.20;;;;;;;22.11;47.06;100022.19;5093198;28;20404;-64
2023/06/13 06:33:35;;;;;;;4.65;2.08;;;;;;;22.12;47.54;100023.88;5093597;28;20140;-64
2023/06/13 06:36:03;;;;;;;3.50;1.95;;;;;;;22.13;47.96;100014.69;5093484;28;20066;-63
2023/06/13 06:38:32;;;;;;;4.30;2.00;;;;;;;22.16;48.09;100008.06;5093727;28;20128;-64
2023/06/13 06:41:00;;;;;;;3.15;1.90;;;;;;;22.17;47.84;100016.03;5093608;28;20050;-64
2023/06/13 06:43:28;;;;;;;4.22;1.98;;;;;;;22.19;47.65;100008.56;5093758;28;20108;-63
2023/06/13 06:45:56;;;;;;;3.50;1.85;;;;;;;22.08;43.49;100013.50;5093604;28;20093;-63
2023/06/13 06:48:24;;;;;;;3.90;1.80;;;;;;;22.05;44.01;100006.53;5093359;28;20072;-63
2023/06/13 06:50:56;;;;;;;4.05;2.17;;;;;;;21.98;43.54;100000.94;5093170;28;20507;-64
2023/06/13 06:53:24;;;;;;;3.72;1.98;;;;;;;21.95;43.41;100001.28;5093329;28;20052;-64
2023/06/13 06:55:52;;;;;;;4.38;2.20;;;;;;;21.98;43.96;100000.09;5093138;28;20521;-63
2023/06/13 06:58:20;;;;;;;6.35;2.33;;;;;;;21.96;43.72;100002.13;5093246;28;20048;-65
2023/06/13 07:00:48;;;;;;;5.32;2.20;;;;;;;21.96;43.34;99999.41;5093264;28;20040;-66
2023/06/13 07:03:17;;;;;;;4.97;2.30;;;;;;;21.97;43.97;100003.81;5093239;28;20047;-63
2023/06/13 07:05:45;;;;;;;4.35;2.22;;;;;;;22.02;45.18;99995.19;5093164;28;20164;-64
2023/06/13 07:08:14;;;;;;;6.15;2.67;;;;;;;22.05;45.58;100001.09;5092301;28;20672;-64
2023/06/13 07:10:42;;;;;;;7.10;2.20;;;;;;;22.07;45.73;99999.09;5091210;28;20133;-64
2023/06/13 07:13:11;;;;;;;6.25;2.38;;;;;;;22.09;45.21;100001.63;5090704;28;20134;-64
2023/06/13 07:15:39;;;;;;;7.80;2.40;;;;;;;22.09;44.83;99999.75;5093175;28;20080;-64
2023/06/13 07:18:08;;;;;;;4.18;2.00;;;;;;;22.10;45.29;100004.19;5092623;28;20040;-64
2023/06/13 07:20:36;;;;;;;4.72;2.20;;;;;;;22.11;45.24;100000.44;5092446;28;20089;-64
2023/06/13 07:23:04;;;;;;;8.00;2.35;;;;;;;22.13;45.73;99994.84;5092746;28;20040;-64
2023/06/13 07:25:34;;;;;;;4.82;2.45;;;;;;;22.14;45.91;99993.81;5092658;28;20162;-63
2023/06/13 07:28:02;;;;;;;5.95;2.42;;;;;;;22.15;45.75;99988.22;5092806;28;20048;-64
2023/06/13 07:30:30;;;;;;;5.60;2.28;;;;;;;22.16;45.94;99989.91;5092568;28;20131;-63
2023/06/13 07:32:58;;;;;;;5.35;2.20;;;;;;;22.18;45.98;99987.84;5092590;28;20489;-64
2023/06/13 07:35:28;;;;;;;4.70;2.30;;;;;;;22.19;45.43;99986.81;5092676;28;20048;-64
2023/06/13 07:37:56;;;;;;;4.50;2.30;;;;;;;22.17;44.42;99974.44;5092493;28;20079;-64
2023/06/13 07:40:25;;;;;;;5.50;2.40;;;;;;;22.15;43.75;99979.22;5092432;28;20048;-63
2023/06/13 07:42:54;;;;;;;4.07;2.05;;;;;;;22.14;43.94;99981.09;5092730;28;20392;-64
2023/06/13 07:45:23;;;;;;;5.13;2.33;;;;;;;22.13;43.32;99973.97;5092172;28;20052;-64
2023/06/13 07:47:55;;;;;;;4.93;2.17;;;;;;;22.10;43.08;99974.31;5092423;28;20051;-64
2023/06/13 07:50:23;;;;;;;4.85;2.63;;;;;;;22.11;43.52;99976.00;5092194;28;20058;-63
2023/06/13 07:52:52;;;;;;;3.67;2.05;;;;;;;22.14;44.38;99967.50;5092283;28;20044;-64
2023/06/13 07:55:21;;;;;;;4.72;2.30;;;;;;;22.18;45.37;99974.28;5092277;28;20048;-63
2023/06/13 07:57:50;;;;;;;4.63;2.15;;;;;;;22.19;45.41;99970.53;5092248;28;20044;-63
2023/06/13 08:00:28;;;;;;;4.53;2.30;;;;;;;22.21;45.18;99967.66;5091911;28;20486;-64
2023/06/13 08:02:57;;;;;;;4.30;2.30;;;;;;;22.20;44.77;99965.97;5091810;28;20051;-64
2023/06/13 08:05:27;;;;;;;5.10;2.20;;;;;;;22.20;44.53;99964.09;5091624;28;20059;-64
2023/06/13 08:07:56;;;;;;;5.32;2.10;;;;;;;22.22;44.88;99969.34;5091497;28;20047;-64
2023/06/13 08:10:25;;;;;;;3.72;2.10;;;;;;;22.22;44.72;99964.78;5091656;28;20052;-63
2023/06/13 08:12:56;;;;;;;5.72;2.50;;;;;;;22.21;44.45;99957.66;5091668;28;20074;-64
2023/06/13 08:15:24;;;;;;;5.35;2.33;;;;;;;22.20;43.47;99964.09;5091880;28;20047;-63
2023/06/13 08:17:57;;;;;;;3.10;1.80;;;;;;;22.19;43.28;99962.38;5091725;28;20118;-65
2023/06/13 08:20:26;;;;;;;4.35;2.20;;;;;;;22.20;43.34;99966.81;5091752;28;20079;-65
2023/06/13 08:22:55;;;;;;;4.30;2.40;;;;;;;22.21;43.85;99963.06;5091763;28;20072;-64
2023/06/13 08:25:23;;;;;;;6.13;2.42;;;;;;;22.22;43.50;99959.34;5091470;28;20040;-64
2023/06/13 08:27:52;;;;;;;5.10;2.17;;;;;;;22.21;43.29;99962.22;5091626;28;20048;-64
2023/06/13 08:30:21;;;;;;;5.20;2.33;;;;;;;22.21;43.27;99962.22;5091344;28;20173;-63
2023/06/13 08:32:52;;;;;;;3.60;1.98;;;;;;;22.23;43.61;99954.75;5091333;28;20048;-64
2023/06/13 08:35:22;;;;;;;4.78;2.30;;;;;;;22.24;44.16;99954.56;5091456;28;20083;-64
2023/06/13 08:37:50;;;;;;;4.72;2.30;;;;;;;22.26;44.49;99955.25;5091631;28;20101;-64
2023/06/13 08:40:19;;;;;;;5.07;2.40;;;;;;;22.28;44.69;99947.75;5091578;28;20181;-64
2023/06/13 08:42:50;;;;;;;4.88;2.45;;;;;;;22.31;45.03;99951.16;5091402;28;20040;-63
2023/06/13 08:45:20;;;;;;;4.15;2.40;;;;;;;22.32;44.96;99948.28;5091349;28;20044;-64
2023/06/13 08:47:48;;;;;;;5.25;2.28;;;;;;;22.35;45.38;99949.78;5091589;28;20135;-64
2023/06/13 08:50:23;;;;;;;4.32;2.20;;;;;;;22.38;45.50;99957.56;5091228;28;20044;-64
2023/06/13 08:52:55;;;;;;;4.75;2.05;;;;;;;22.39;45.25;99956.53;5091534;28;20059;-64
2023/06/13 08:55:25;;;;;;;4.40;2.30;;;;;;;22.40;45.19;99955.56;5091152;28;20413;-64
2023/06/13 08:57:57;;;;;;;4.43;2.38;;;;;;;22.42;45.12;99953.50;5091367;28;20106;-64
2023/06/13 09:00:26;;;;;;;4.32;2.13;;;;;;;22.44;45.52;99956.88;5091375;28;20045;-64
2023/06/13 09:02:56;;;;;;;5.00;2.10;;;;;;;22.46;45.44;99954.81;5091259;28;20459;-64
2023/06/13 09:05:25;;;;;;;5.50;2.40;;;;;;;22.48;45.27;99952.78;5090976;28;20043;-65
2023/06/13 09:07:56;;;;;;;3.63;2.20;;;;;;;22.49;45.00;99954.50;5090879;28;20310;-65
2023/06/13 09:10:45;;;;;;;3.90;2.22;;;;;;;22.50;44.79;99953.47;5090975;28;20044;-64
2023/06/13 09:13:15;;;;;;;4.88;2.60;;;;;;;22.50;44.90;99948.88;5091038;28;20048;-64
2023/06/13 09:15:44;;;;;;;4.05;2.05;;;;;;;22.45;41.41;99950.41;5091163;28;20052;-64
2023/06/13 09:18:13;;;;;;;4.57;2.35;;;;;;;22.40;40.81;99944.69;5091174;28;20374;-64
2023/06/13 09:20:41;;;;;;;6.85;2.20;;;;;;;22.43;42.66;99950.59;5090872;28;20052;-64
2023/06/13 09:23:15;;;;;;;4.03;2.50;;;;;;;22.48;43.82;99958.22;5091202;28;20044;-64
2023/06/13 09:25:46;;;;;;;4.05;2.03;;;;;;;22.50;44.23;99945.31;5091020;28;20084;-64
2023/06/13 09:28:30;;;;;;;4.75;2.33;;;;;;;22.51;44.41;99947.84;5091148;28;20087;-64
2023/06/13 09:30:59;;;;;;;3.83;2.05;;;;;;;22.54;44.55;99946.66;5090799;28;20044;-65
2023/06/13 09:33:28;;;;;;;4.57;2.20;;;;;;;22.58;44.74;99937.09;5090821;28;20084;-64
2023/06/13 09:35:56;;;;;;;3.35;1.85;;;;;;;22.59;44.96;99938.81;5090920;28;20055;-64
2023/06/13 09:38:29;;;;;;;3.95;2.10;;;;;;;22.62;45.06;99941.19;5095143;28;20075;-64
2023/06/13 09:40:58;;;;;;;4.30;1.98;;;;;;;22.65;44.76;99937.25;5094983;28;20075;-64
2023/06/13 09:43:27;;;;;;;5.07;2.40;;;;;;;22.67;44.71;99927.03;5094819;28;20048;-64
2023/06/13 09:45:55;;;;;;;5.10;2.20;;;;;;;22.67;44.80;99930.59;5094925;28;20075;-64
2023/06/13 09:48:24;;;;;;;4.43;2.47;;;;;;;22.69;43.72;99928.56;5094745;28;20047;-64
2023/06/13 09:50:52;;;;;;;5.82;2.30;;;;;;;22.68;42.64;99929.59;5094768;28;20044;-64
2023/06/13 09:53:21;;;;;;;3.38;1.90;;;;;;;22.68;42.40;99926.88;5094612;28;20044;-63
2023/06/13 09:55:50;;;;;;;3.85;2.28;;;;;;;22.71;43.40;99937.41;5094743;28;20040;-64
2023/06/13 09:58:18;;;;;;;4.75;2.30;;;;;;;22.74;44.43;99931.59;5094475;28;20108;-63
2023/06/13 10:00:56;;;;;;;4.20;2.25;;;;;;;22.78;44.71;99934.81;5094753;28;20131;-64
2023/06/13 10:03:25;;;;;;;7.10;2.45;;;;;;;22.79;43.24;99936.50;5094490;28;20105;-64
2023/06/13 10:05:54;;;;;;;3.90;1.98;;;;;;;22.81;44.08;99940.72;5094230;28;20048;-64
2023/06/13 10:08:24;;;;;;;3.90;2.20;;;;;;;22.84;44.04;99940.41;5094339;28;20121;-64
2023/06/13 10:10:55;;;;;;;3.72;1.80;;;;;;;22.87;44.69;99935.63;5094121;28;20105;-63
2023/06/13 10:13:26;;;;;;;3.28;2.00;;;;;;;22.90;44.80;99935.28;5094118;28;20139;-64
2023/06/13 10:15:58;;;;;;;3.85;2.00;;;;;;;22.92;44.69;99934.06;5094115;28;20128;-64
2023/06/13 10:18:32;;;;;;;2.80;1.80;;;;;;;22.95;44.61;99943.72;5094133;28;20053;-64
2023/06/13 10:21:02;;;;;;;3.72;2.03;;;;;;;22.97;44.70;99930.78;5093878;28;20105;-64
2023/06/13 10:23:36;;;;;;;4.15;1.92;;;;;;;22.98;44.79;99930.66;5094243;28;20040;-65
2023/06/13 10:26:09;;;;;;;2.97;1.80;;;;;;;23.00;45.11;99927.75;5094132;28;20428;-65
2023/06/13 10:28:55;;;;;;;4.85;2.15;;;;;;;23.02;45.21;99922.97;5093940;28;20044;-64
2023/06/13 10:31:35;;;;;;;3.00;2.00;;;;;;;23.03;45.16;99916.50;5093762;28;20067;-66
2023/06/13 10:34:25;;;;;;;3.63;2.08;;;;;;;23.03;43.50;99919.22;5093755;28;20504;-65
2023/06/13 10:37:26;;;;;;;4.60;2.17;;;;;;;22.98;40.58;99927.06;5093860;28;20093;-66
2023/06/13 10:40:16;;;;;;;5.40;1.90;;;;;;;22.96;40.25;99920.94;5093959;28;20048;-65
2023/06/13 10:42:51;;;;;;;4.50;2.10;;;;;;;22.95;40.60;99925.53;5090996;28;20075;-65
2023/06/13 10:45:24;;;;;;;3.78;2.20;;;;;;;22.91;39.56;99921.50;5093464;28;20486;-66
2023/06/13 10:47:52;;;;;;;;;;;;;;;22.90;40.46;99921.69;5093638;28;20056;-65
2023/06/13 10:50:21;;;;;;;3.22;1.92;;;;;;;22.96;42.28;99912.78;5093376;28;19923;-65
2023/06/13 10:52:54;;;;;;;3.30;1.90;;;;;;;22.98;41.60;99914.31;5093488;28;20168;-65
2023/06/13 10:55:29;;;;;;;2.90;1.70;;;;;;;23.02;42.59;99899.31;5093238;28;20047;-65
2023/06/13 10:57:59;;;;;;;4.30;2.10;;;;;;;23.05;42.17;99898.09;5093246;28;20101;-64
2023/06/13 11:00:29;;;;;;;3.25;2.13;;;;;;;23.03;39.99;99897.44;5092939;28;20480;-64
2023/06/13 11:02:59;;;;;;;3.50;2.08;;;;;;;23.04;40.03;99893.69;5093036;28;20055;-64
2023/06/13 11:05:28;;;;;;;5.30;2.17;;;;;;;23.07;40.59;99887.91;5092903;28;20113;-64
2023/06/13 11:08:14;;;;;;;4.50;2.10;;;;;;;23.12;41.93;99891.75;5093192;28;20048;-65
2023/06/13 11:10:43;;;;;;;2.80;1.92;;;;;;;23.13;41.67;99887.16;5092877;28;20051;-65
2023/06/13 11:13:20;;;;;;;5.22;2.53;;;;;;;23.13;39.18;99906.22;5092611;28;20052;-66
2023/06/13 11:15:50;;;;;;;3.13;1.88;;;;;;;23.11;38.27;99890.06;5092691;28;20440;-65
2023/06/13 11:18:36;;;;;;;4.82;2.25;;;;;;;23.13;38.24;99892.59;5092837;28;20052;-64
2023/06/13 11:21:04;;;;;;;3.50;2.00;;;;;;;23.18;40.36;99901.09;5092618;28;20054;-65
2023/06/13 11:23:55;;;;;;;3.53;2.00;;;;;;;23.20;38.58;99888.13;5092564;28;20052;-65
2023/06/13 11:26:23;;;;;;;3.95;2.17;;;;;;;23.23;39.13;99882.31;5088753;28;20454;-64
2023/06/13 11:28:54;;;;;;;4.05;2.35;;;;;;;23.26;38.90;99881.97;5092892;28;20546;-64
2023/06/13 11:31:22;;;;;;;2.83;1.80;;;;;;;23.30;38.55;99882.44;5092677;28;20150;-65
2023/06/13 11:33:52;;;;;;;3.67;1.70;;;;;;;23.34;39.13;99872.88;5092541;28;20047;-65
2023/06/13 11:36:26;;;;;;;3.83;2.22;;;;;;;23.38;40.80;99866.91;5092654;28;20048;-65
2023/06/13 11:38:58;;;;;;;3.13;2.00;;;;;;;23.41;39.16;99869.25;5092998;28;20081;-65
2023/06/13 11:41:29;;;;;;;4.80;2.10;;;;;;;23.45;40.31;99858.84;5092787;28;20086;-65
2023/06/13 11:43:59;;;;;;;3.50;2.05;;;;;;;23.51;41.31;99868.13;5092437;28;20113;-65